createdAt,value
2018-06-12T00:00:33.200Z,14.67
2018-06-12T00:03:01.741Z,13.23
2018-06-12T00:05:30.197Z,11.97
2018-06-12T00:07:58.612Z,12.57
2018-06-12T00:10:27.040Z,13.33
2018-06-12T00:12:55.537Z,12.70
2018-06-12T00:15:23.656Z,11.47
2018-06-12T00:17:52.088Z,13.90
2018-06-12T00:20:20.505Z,12.50
2018-06-12T00:22:48.945Z,13.00
2018-06-12T00:25:17.051Z,11.80
2018-06-12T00:27:45.697Z,11.40
2018-06-12T00:30:14.124Z,13.43
2018-06-12T00:32:42.552Z,10.50
2018-06-12T00:35:10.971Z,10.30
2018-06-12T00:37:39.424Z,9.90
2018-06-12T00:40:07.847Z,11.23
2018-06-12T00:42:36.277Z,10.47
2018-06-12T00:45:04.395Z,11.70
2018-06-12T00:47:32.832Z,9.10
2018-06-12T00:50:01.246Z,9.23
2018-06-12T00:52:29.673Z,10.83
2018-06-12T00:54:57.775Z,11.20
2018-06-12T00:57:26.193Z,9.80
2018-06-12T00:59:54.632Z,10.53
2018-06-12T01:02:23.076Z,11.60
2018-06-12T01:04:51.187Z,12.13
2018-06-12T01:07:19.618Z,11.80
2018-06-12T01:09:48.017Z,11.37
2018-06-12T01:12:17.287Z,12.37
2018-06-12T01:14:45.692Z,11.20
2018-06-12T01:17:13.804Z,12.93
2018-06-12T01:19:42.246Z,13.33
2018-06-12T01:22:10.686Z,13.27
2018-06-12T01:24:39.149Z,12.80
2018-06-12T01:27:07.572Z,12.67
2018-06-12T01:29:35.979Z,11.37
2018-06-12T01:32:04.398Z,13.00
2018-06-12T01:34:32.825Z,12.13
2018-06-12T01:37:01.269Z,13.93
2018-06-12T01:39:29.687Z,13.73
2018-06-12T01:41:58.108Z,12.20
2018-06-12T01:44:26.538Z,14.23
2018-06-12T01:46:54.944Z,13.77
2018-06-12T01:49:23.380Z,11.27
2018-06-12T01:51:51.477Z,13.10
2018-06-12T01:54:19.912Z,13.13
2018-06-12T01:56:48.326Z,12.67
2018-06-12T01:59:16.769Z,13.30
2018-06-12T02:01:45.192Z,14.13
2018-06-12T02:04:13.624Z,13.67
2018-06-12T02:06:42.031Z,15.00
2018-06-12T02:09:10.456Z,13.30
2018-06-12T02:11:38.909Z,14.87
2018-06-12T02:14:07.332Z,13.53
2018-06-12T02:16:35.780Z,12.80
2018-06-12T02:19:04.197Z,14.57
2018-06-12T02:21:32.324Z,14.80
2018-06-12T02:24:00.752Z,15.90
2018-06-12T02:26:29.183Z,13.70
2018-06-12T02:28:57.616Z,14.90
2018-06-12T02:31:26.037Z,15.60
2018-06-12T02:33:54.461Z,12.77
2018-06-12T02:36:22.892Z,15.10
2018-06-12T02:38:51.318Z,13.73
2018-06-12T02:41:19.460Z,14.57
2018-06-12T02:43:47.868Z,14.60
2018-06-12T02:46:16.321Z,14.40
2018-06-12T02:48:44.749Z,14.27
2018-06-12T02:51:13.149Z,16.07
2018-06-12T02:53:41.577Z,15.43
2018-06-12T02:56:09.707Z,15.87
2018-06-12T02:58:38.116Z,16.10
2018-06-12T03:01:06.576Z,15.80
2018-06-12T03:03:35.008Z,13.83
2018-06-12T03:06:03.445Z,15.57
2018-06-12T03:08:31.885Z,16.67
2018-06-12T03:11:00.318Z,17.40
2018-06-12T03:13:28.429Z,17.07
2018-06-12T03:15:56.853Z,15.90
2018-06-12T03:18:25.273Z,15.53
2018-06-12T03:20:53.680Z,16.60
2018-06-12T03:23:22.190Z,17.30
2018-06-12T03:25:58.868Z,17.07
2018-06-12T03:28:27.278Z,16.17
2018-06-12T03:30:55.699Z,17.10
2018-06-12T03:33:24.106Z,15.70
2018-06-12T03:35:52.565Z,18.77
2018-06-12T03:38:20.972Z,17.63
2018-06-12T03:40:49.409Z,17.50
2018-06-12T03:43:17.825Z,16.30
2018-06-12T03:45:46.252Z,17.70
2018-06-12T03:48:14.685Z,16.60
2018-06-12T03:50:43.116Z,17.97
2018-06-12T03:53:11.543Z,19.10
2018-06-12T03:55:40.317Z,18.17
2018-06-12T03:58:08.720Z,19.73
2018-06-12T04:00:37.137Z,18.63
2018-06-12T04:03:05.580Z,19.83
2018-06-12T04:05:33.989Z,20.83
2018-06-12T04:08:02.409Z,19.93
2018-06-12T04:10:30.513Z,20.10
2018-06-12T04:12:58.937Z,21.70
2018-06-12T04:15:27.349Z,22.23
2018-06-12T04:17:55.467Z,21.10
2018-06-12T04:20:23.935Z,22.60
2018-06-12T04:22:52.020Z,21.03
2018-06-12T04:25:20.441Z,20.50
2018-06-12T04:27:48.547Z,21.43
2018-06-12T04:30:17.052Z,23.27
2018-06-12T04:32:45.519Z,25.00
2018-06-12T04:35:13.932Z,21.47
2018-06-12T04:37:42.325Z,20.67
2018-06-12T04:40:10.440Z,19.90
2018-06-12T04:42:38.853Z,19.37
2018-06-12T04:45:07.300Z,21.57
2018-06-12T04:47:35.718Z,22.00
2018-06-12T04:50:04.196Z,22.20
2018-06-12T04:52:32.622Z,25.47
2018-06-12T04:55:01.069Z,22.27
2018-06-12T04:57:29.168Z,23.50
2018-06-12T04:59:57.588Z,20.20
2018-06-12T05:02:26.014Z,22.87
2018-06-12T05:04:54.430Z,21.13
2018-06-12T05:07:22.861Z,20.20
2018-06-12T05:09:51.282Z,20.30
2018-06-12T05:12:19.720Z,16.97
2018-06-12T05:14:48.124Z,19.33
2018-06-12T05:17:16.589Z,19.37
2018-06-12T05:19:45.033Z,18.67
2018-06-12T05:22:13.476Z,19.60
2018-06-12T05:24:41.893Z,16.47
2018-06-12T05:27:10.325Z,19.80
2018-06-12T05:29:38.736Z,18.10
2018-06-12T05:32:07.197Z,20.30
2018-06-12T05:34:35.606Z,15.97
2018-06-12T05:37:03.716Z,17.10
2018-06-12T05:39:32.904Z,19.80
2018-06-12T05:42:01.341Z,17.13
2018-06-12T05:44:29.773Z,18.37
2018-06-12T05:46:58.208Z,17.50
2018-06-12T05:49:26.304Z,16.10
2018-06-12T05:51:54.737Z,17.70
2018-06-12T05:54:23.176Z,15.50
2018-06-12T05:56:51.640Z,16.20
2018-06-12T05:59:20.069Z,17.83
2018-06-12T06:01:48.537Z,17.23
2018-06-12T06:04:16.973Z,15.77
2018-06-12T06:06:45.401Z,17.17
2018-06-12T06:09:13.839Z,16.40
2018-06-12T06:11:42.278Z,17.60
2018-06-12T06:14:10.708Z,16.27
2018-06-12T06:16:39.126Z,17.70
2018-06-12T06:19:07.572Z,16.13
2018-06-12T06:21:36.005Z,18.40
2018-06-12T06:24:04.152Z,17.03
2018-06-12T06:26:32.593Z,16.80
2018-06-12T06:29:01.088Z,16.33
2018-06-12T06:31:29.533Z,15.57
2018-06-12T06:33:57.941Z,16.40
2018-06-12T06:36:26.382Z,15.73
2018-06-12T06:38:54.804Z,16.70
2018-06-12T06:41:23.225Z,16.93
2018-06-12T06:43:51.345Z,15.20
2018-06-12T06:46:19.773Z,13.17
2018-06-12T06:48:47.908Z,15.10
2018-06-12T06:51:16.325Z,15.60
2018-06-12T06:53:44.557Z,15.00
2018-06-12T06:56:12.616Z,15.97
2018-06-12T06:58:41.090Z,15.97
2018-06-12T07:01:09.550Z,16.03
2018-06-12T07:03:38.027Z,16.30
2018-06-12T07:06:06.493Z,14.30
2018-06-12T07:08:34.960Z,11.70
2018-06-12T07:11:03.102Z,15.70
2018-06-12T07:13:31.516Z,15.40
2018-06-12T07:16:00.035Z,16.27
2018-06-12T07:18:28.473Z,14.43
2018-06-12T07:20:57.616Z,13.47
2018-06-12T07:23:26.092Z,12.00
2018-06-12T07:25:54.541Z,12.77
2018-06-12T07:28:22.979Z,12.10
2018-06-12T07:30:51.422Z,11.17
2018-06-12T07:33:19.846Z,10.27
2018-06-12T07:35:48.293Z,11.67
2018-06-12T07:38:16.743Z,11.03
2018-06-12T07:40:45.183Z,10.90
2018-06-12T07:43:13.318Z,10.50
2018-06-12T07:45:41.749Z,13.00
2018-06-12T07:48:09.940Z,9.67
2018-06-12T07:50:38.371Z,10.63
2018-06-12T07:53:06.877Z,10.40
2018-06-12T07:55:35.305Z,9.90
2018-06-12T07:58:03.749Z,10.57
2018-06-12T08:00:32.193Z,10.20
2018-06-12T08:03:00.299Z,11.23
2018-06-12T08:05:28.742Z,10.80
2018-06-12T08:07:57.165Z,10.13
2018-06-12T08:10:25.612Z,10.50
2018-06-12T08:12:53.771Z,11.13
2018-06-12T08:15:22.189Z,11.23
2018-06-12T08:17:50.628Z,10.33
2018-06-12T08:20:19.041Z,10.10
2018-06-12T08:22:47.493Z,11.20
2018-06-12T08:25:15.945Z,10.63
2018-06-12T08:27:44.381Z,9.97
2018-06-12T08:30:12.892Z,9.33
2018-06-12T08:32:40.969Z,9.70
2018-06-12T08:35:09.629Z,9.20
2018-06-12T08:37:38.040Z,9.63
2018-06-12T08:40:06.522Z,9.30
2018-06-12T08:42:34.936Z,10.73
2018-06-12T08:45:03.422Z,10.93
2018-06-12T08:47:31.837Z,9.67
2018-06-12T08:50:00.388Z,10.87
2018-06-12T08:52:28.793Z,9.53
2018-06-12T08:54:57.232Z,11.10
2018-06-12T08:57:25.657Z,9.10
2018-06-12T08:59:54.070Z,10.03
2018-06-12T09:02:22.183Z,10.60
2018-06-12T09:04:50.599Z,9.67
2018-06-12T09:07:19.027Z,11.80
2018-06-12T09:09:47.450Z,11.20
2018-06-12T09:12:15.901Z,12.23
2018-06-12T09:14:44.333Z,12.70
2018-06-12T09:17:12.488Z,13.80
2018-06-12T09:19:40.916Z,13.00
2018-06-12T09:22:09.333Z,12.03
2018-06-12T09:24:37.771Z,12.80
2018-06-12T09:27:06.218Z,12.67
2018-06-12T09:29:34.339Z,12.60
2018-06-12T09:32:02.829Z,13.87
2018-06-12T09:34:31.280Z,14.03
2018-06-12T09:36:59.701Z,12.67
2018-06-12T09:39:28.116Z,13.07
2018-06-12T09:41:56.550Z,13.00
2018-06-12T09:44:24.977Z,14.03
2018-06-12T09:46:53.534Z,10.40
2018-06-12T09:49:21.960Z,9.83
2018-06-12T09:51:50.666Z,9.10
2018-06-12T09:54:19.085Z,9.73
2018-06-12T09:56:47.537Z,9.97
2018-06-12T09:59:15.979Z,8.13
2018-06-12T10:01:44.417Z,9.43
2018-06-12T10:04:12.535Z,9.00
2018-06-12T10:06:40.994Z,8.70
2018-06-12T10:09:09.433Z,7.93
2018-06-12T10:11:37.855Z,9.57
2018-06-12T10:15:09.293Z,10.30
2018-06-12T10:17:37.713Z,9.70
2018-06-12T10:20:06.158Z,9.23
2018-06-12T10:22:34.592Z,7.90
2018-06-12T10:25:03.083Z,8.30
2018-06-12T10:27:31.489Z,8.33
2018-06-12T10:29:59.917Z,9.80
2018-06-12T10:32:28.332Z,9.43
2018-06-12T10:34:56.448Z,7.80
2018-06-12T10:37:24.936Z,8.70
2018-06-12T10:39:53.320Z,8.47
2018-06-12T10:42:21.741Z,10.27
2018-06-12T10:44:50.164Z,9.00
2018-06-12T10:47:18.597Z,8.53
2018-06-12T10:49:47.032Z,9.20
2018-06-12T10:52:15.473Z,7.80
2018-06-12T10:54:43.893Z,8.40
2018-06-12T10:57:12.373Z,9.90
2018-06-12T10:59:40.785Z,8.10
2018-06-12T11:02:08.932Z,10.13
2018-06-12T11:04:37.342Z,8.30
2018-06-12T11:07:07.039Z,9.30
2018-06-12T11:09:35.160Z,9.80
2018-06-12T11:12:03.617Z,9.67
2018-06-12T11:14:32.041Z,10.57
2018-06-12T11:17:00.476Z,10.73
2018-06-12T11:19:28.900Z,9.23
2018-06-12T11:21:57.333Z,9.63
2018-06-12T11:24:25.748Z,11.57
2018-06-12T11:26:54.187Z,11.00
2018-06-12T11:29:22.631Z,10.37
2018-06-12T11:31:50.737Z,10.33
2018-06-12T11:34:19.173Z,11.57
2018-06-12T11:36:47.600Z,12.60
2018-06-12T11:39:16.045Z,11.13
2018-06-12T11:41:44.530Z,10.47
2018-06-12T11:44:12.945Z,13.87
2018-06-12T11:46:41.371Z,11.90
2018-06-12T11:49:09.496Z,10.83
2018-06-12T11:51:37.924Z,11.20
2018-06-12T11:54:06.062Z,10.47
2018-06-12T11:56:34.484Z,11.73
2018-06-12T11:59:02.931Z,12.20
2018-06-12T12:01:31.345Z,11.00
2018-06-12T12:03:59.788Z,12.00
2018-06-12T12:06:28.220Z,10.63
2018-06-12T12:08:56.653Z,11.43
2018-06-12T12:11:25.085Z,11.20
2018-06-12T12:13:53.520Z,12.37
2018-06-12T12:16:21.937Z,13.97
2018-06-12T12:18:50.385Z,11.53
2018-06-12T12:21:18.811Z,12.90
2018-06-12T12:23:47.259Z,12.47
2018-06-12T12:26:15.741Z,12.67
2018-06-12T12:28:44.269Z,10.63
2018-06-12T12:31:12.678Z,13.27
2018-06-12T12:33:40.800Z,12.10
2018-06-12T12:36:09.226Z,12.30
2018-06-12T12:38:37.349Z,12.03
2018-06-12T12:41:05.813Z,10.30
2018-06-12T12:43:34.245Z,12.70
2018-06-12T12:46:02.782Z,10.60
2018-06-12T12:48:31.198Z,12.70
2018-06-12T12:50:59.656Z,12.80
2018-06-12T12:53:28.096Z,13.10
2018-06-12T12:55:56.535Z,10.90
2018-06-12T12:58:24.988Z,11.83
2018-06-12T13:00:53.433Z,12.33
2018-06-12T13:03:21.845Z,10.53
2018-06-12T13:05:50.320Z,11.63
2018-06-12T13:08:18.781Z,14.33
2018-06-12T13:10:47.229Z,13.47
2018-06-12T13:13:15.656Z,13.63
2018-06-12T13:15:44.105Z,11.27
2018-06-12T13:18:12.521Z,14.40
2018-06-12T13:20:40.990Z,13.70
2018-06-12T13:23:09.413Z,13.90
2018-06-12T13:25:37.540Z,12.67
2018-06-12T13:28:06.037Z,13.40
2018-06-12T13:30:34.481Z,12.87
2018-06-12T13:33:02.974Z,14.67
2018-06-12T13:35:31.424Z,13.50
2018-06-12T13:37:59.846Z,13.47
2018-06-12T13:40:28.318Z,16.93
2018-06-12T13:42:56.726Z,14.80
2018-06-12T13:45:24.840Z,13.10
2018-06-12T13:47:53.245Z,16.10
2018-06-12T13:50:21.705Z,13.43
2018-06-12T13:52:50.180Z,15.90
2018-06-12T13:55:18.617Z,15.30
2018-06-12T13:57:46.738Z,16.13
2018-06-12T14:00:15.180Z,21.17
2018-06-12T14:02:43.621Z,20.47
2018-06-12T14:05:12.065Z,25.90
2018-06-12T14:07:40.495Z,20.57
2018-06-12T14:10:08.592Z,24.20
2018-06-12T14:12:37.033Z,20.57
2018-06-12T14:15:05.513Z,21.20
2018-06-12T14:17:33.945Z,21.33
2018-06-12T14:20:02.381Z,19.03
2018-06-12T14:22:30.503Z,21.13
2018-06-12T14:24:58.926Z,20.60
2018-06-12T14:27:27.377Z,17.50
2018-06-12T14:29:55.805Z,18.67
2018-06-12T14:32:24.242Z,17.87
2018-06-12T14:34:52.659Z,16.33
2018-06-12T14:37:21.105Z,16.53
2018-06-12T14:39:49.522Z,18.63
2018-06-12T14:42:17.961Z,15.40
2018-06-12T14:44:46.369Z,14.63
2018-06-12T14:47:14.804Z,21.00
2018-06-12T14:49:43.225Z,21.07
2018-06-12T14:52:11.710Z,21.87
2018-06-12T14:54:40.130Z,18.17
2018-06-12T14:57:08.593Z,19.70
2018-06-12T14:59:37.021Z,21.23
2018-06-12T15:02:05.573Z,18.97
2018-06-12T15:04:34.005Z,17.03
2018-06-12T15:07:03.438Z,17.97
2018-06-12T15:09:31.868Z,18.40
2018-06-12T15:11:59.972Z,16.37
2018-06-12T15:14:28.421Z,18.07
2018-06-12T15:16:56.520Z,16.47
2018-06-12T15:19:24.933Z,19.27
2018-06-12T15:21:53.393Z,18.10
2018-06-12T15:24:21.812Z,18.93
2018-06-12T15:26:50.270Z,19.33
2018-06-12T15:29:18.837Z,21.60
2018-06-12T15:31:47.281Z,18.43
2018-06-12T15:34:15.704Z,15.60
2018-06-12T15:36:44.140Z,20.97
2018-06-12T15:39:12.561Z,21.30
2018-06-12T15:41:40.999Z,19.20
2018-06-12T15:44:09.461Z,17.07
2018-06-12T15:46:37.896Z,15.87
2018-06-12T15:49:06.354Z,17.50
2018-06-12T15:51:34.788Z,18.37
2018-06-12T15:54:02.970Z,21.20
2018-06-12T15:56:31.093Z,16.37
2018-06-12T15:58:59.521Z,15.07
2018-06-12T16:01:27.982Z,15.67
2018-06-12T16:03:56.401Z,15.10
2018-06-12T16:06:24.850Z,16.13
2018-06-12T16:08:52.954Z,13.50
2018-06-12T16:11:21.402Z,15.77
2018-06-12T16:13:49.664Z,16.23
2018-06-12T16:16:17.792Z,13.93
2018-06-12T16:18:46.224Z,16.13
2018-06-12T16:21:14.324Z,15.03
2018-06-12T16:23:42.837Z,16.33
2018-06-12T16:26:11.306Z,14.83
2018-06-12T16:28:39.863Z,16.57
2018-06-12T16:31:08.321Z,17.23
2018-06-12T16:33:36.756Z,17.23
2018-06-12T16:36:05.323Z,15.87
2018-06-12T16:38:33.756Z,15.77
2018-06-12T16:41:02.204Z,16.50
2018-06-12T16:43:30.694Z,15.70
2018-06-12T16:45:59.141Z,15.40
2018-06-12T16:48:27.595Z,17.90
2018-06-12T16:50:56.029Z,18.07
2018-06-12T16:53:24.460Z,18.90
2018-06-12T16:55:52.917Z,20.27
2018-06-12T16:58:21.353Z,18.70
2018-06-12T17:00:49.781Z,13.97
2018-06-12T17:03:18.246Z,17.83
2018-06-12T17:05:46.709Z,19.07
2018-06-12T17:08:15.161Z,18.67
2018-06-12T17:10:43.594Z,17.80
2018-06-12T17:13:12.038Z,18.23
2018-06-12T17:15:40.493Z,18.43
2018-06-12T17:18:08.901Z,21.97
2018-06-12T17:20:37.027Z,19.80
2018-06-12T17:23:05.466Z,24.10
2018-06-12T17:25:33.921Z,20.60
2018-06-12T17:28:02.393Z,22.50
2018-06-12T17:30:30.865Z,22.93
2018-06-12T17:32:59.296Z,21.33
2018-06-12T17:35:27.729Z,23.23
2018-06-12T17:37:56.190Z,20.20
2018-06-12T17:40:24.662Z,16.30
2018-06-12T17:42:53.093Z,19.70
2018-06-12T17:45:21.529Z,18.00
2018-06-12T17:47:50.240Z,17.37
2018-06-12T17:50:18.541Z,17.13
2018-06-12T17:52:46.996Z,18.47
2018-06-12T17:55:15.172Z,16.97
2018-06-12T17:57:43.365Z,16.63
2018-06-12T18:00:11.978Z,19.70
2018-06-12T18:02:40.537Z,18.53
2018-06-12T18:05:08.953Z,17.30
2018-06-12T18:07:37.650Z,16.00
2018-06-12T18:10:07.273Z,17.23
2018-06-12T18:12:35.542Z,16.67
2018-06-12T18:15:03.817Z,17.23
2018-06-12T18:17:32.231Z,18.43
2018-06-12T18:20:01.767Z,19.37
2018-06-12T18:22:31.141Z,17.10
2018-06-12T18:24:59.681Z,15.57
2018-06-12T18:27:28.082Z,19.30
2018-06-12T18:29:56.537Z,15.23
2018-06-12T18:32:24.646Z,16.80
2018-06-12T18:34:53.089Z,19.87
2018-06-12T18:37:21.239Z,18.10
2018-06-12T18:39:49.634Z,18.87
2018-06-12T18:42:18.028Z,18.10
2018-06-12T18:44:46.444Z,18.97
2018-06-12T18:47:14.900Z,17.83
2018-06-12T18:49:43.316Z,13.27
2018-06-12T18:52:11.772Z,14.87
2018-06-12T18:54:40.210Z,19.07
2018-06-12T18:57:08.328Z,16.87
2018-06-12T18:59:36.741Z,19.20
2018-06-12T19:02:05.546Z,15.33
2018-06-12T19:04:33.982Z,14.67
2018-06-12T19:07:02.822Z,18.60
2018-06-12T19:09:30.955Z,16.60
2018-06-12T19:11:59.400Z,16.90
2018-06-12T19:14:27.840Z,17.90
2018-06-12T19:16:55.956Z,18.37
2018-06-12T19:19:24.397Z,18.30
2018-06-12T19:21:52.500Z,15.63
2018-06-12T19:24:20.949Z,18.30
2018-06-12T19:26:49.048Z,18.00
2018-06-12T19:29:17.541Z,14.47
2018-06-12T19:31:45.961Z,17.77
2018-06-12T19:34:14.388Z,15.63
2018-06-12T19:36:42.831Z,17.03
2018-06-12T19:39:11.305Z,20.77
2018-06-12T19:41:39.417Z,18.37
2018-06-12T19:44:07.856Z,17.23
2018-06-12T19:46:36.269Z,17.43
2018-06-12T19:49:04.758Z,17.63
2018-06-12T19:51:33.197Z,18.07
2018-06-12T19:54:01.661Z,19.13
2018-06-12T19:56:29.773Z,17.57
2018-06-12T19:58:58.225Z,19.07
2018-06-12T20:01:26.332Z,19.00
2018-06-12T20:03:55.337Z,16.43
2018-06-12T20:06:23.783Z,16.97
2018-06-12T20:08:52.208Z,19.40
2018-06-12T20:11:20.663Z,16.33
2018-06-12T20:13:49.104Z,16.57
2018-06-12T20:16:17.585Z,18.20
2018-06-12T20:18:46.025Z,19.73
2018-06-12T20:21:14.453Z,16.57
2018-06-12T20:23:42.873Z,18.90
2018-06-12T20:26:11.314Z,19.70
2018-06-12T20:28:39.733Z,21.70
2018-06-12T20:31:08.182Z,17.87
2018-06-12T20:33:36.602Z,16.77
2018-06-12T20:36:05.156Z,19.93
2018-06-12T20:38:33.609Z,15.03
2018-06-12T20:41:02.036Z,16.00
2018-06-12T20:43:30.465Z,20.50
2018-06-12T20:45:58.908Z,18.80
2018-06-12T20:48:27.024Z,17.10
2018-06-12T20:50:55.468Z,17.70
2018-06-12T20:53:23.930Z,18.27
2018-06-12T20:55:52.354Z,16.20
2018-06-12T20:58:20.868Z,17.17
2018-06-12T21:00:49.293Z,14.80
2018-06-12T21:03:17.749Z,15.50
2018-06-12T21:05:46.169Z,20.10
2018-06-12T21:08:14.601Z,17.77
2018-06-12T21:10:43.058Z,20.63
2018-06-12T21:13:11.505Z,17.27
2018-06-12T21:15:39.919Z,19.20
2018-06-12T21:18:08.365Z,17.70
2018-06-12T21:20:36.835Z,16.97
2018-06-12T21:23:05.379Z,17.00
2018-06-12T21:25:33.794Z,18.47
2018-06-12T21:28:02.294Z,17.10
2018-06-12T21:30:30.713Z,15.67
2018-06-12T21:32:59.145Z,15.27
2018-06-12T21:35:27.554Z,15.30
2018-06-12T21:37:55.981Z,15.90
2018-06-12T21:40:24.404Z,13.80
2018-06-12T21:42:52.857Z,15.50
2018-06-12T21:45:21.337Z,16.87
2018-06-12T21:47:49.873Z,16.60
2018-06-12T21:50:17.980Z,17.67
2018-06-12T21:52:46.425Z,16.77
2018-06-12T21:55:14.529Z,17.30
2018-06-12T21:57:43.001Z,14.87
2018-06-12T22:00:11.658Z,15.50
2018-06-12T22:02:39.780Z,15.30
2018-06-12T22:05:08.257Z,14.00
2018-06-12T22:07:36.758Z,13.20
2018-06-12T22:10:05.262Z,11.23
2018-06-12T22:12:33.393Z,13.40
2018-06-12T22:15:01.841Z,13.00
2018-06-12T22:17:30.266Z,12.30
2018-06-12T22:19:58.735Z,11.23
2018-06-12T22:22:27.174Z,13.00
2018-06-12T22:24:55.610Z,13.20
2018-06-12T22:27:24.077Z,12.23
2018-06-12T22:29:52.513Z,13.20
2018-06-12T22:32:20.967Z,10.40
2018-06-12T22:34:49.120Z,11.17
2018-06-12T22:37:17.598Z,11.20
2018-06-12T22:39:46.029Z,11.03
2018-06-12T22:42:14.449Z,9.90
2018-06-12T22:44:42.859Z,10.60
2018-06-12T22:47:10.964Z,9.23
2018-06-12T22:49:39.373Z,10.73
2018-06-12T22:52:07.901Z,8.80
2018-06-12T22:54:36.333Z,10.30
2018-06-12T22:57:04.989Z,14.83
2018-06-12T22:59:33.409Z,9.70
2018-06-12T23:02:01.864Z,10.37
2018-06-12T23:04:30.282Z,10.30
2018-06-12T23:06:58.760Z,9.67
2018-06-12T23:09:26.845Z,9.00
2018-06-12T23:11:55.261Z,7.73
2018-06-12T23:14:23.725Z,8.20
2018-06-12T23:16:52.239Z,8.60
2018-06-12T23:19:20.602Z,7.90
2018-06-12T23:21:59.537Z,7.70
2018-06-12T23:24:28.022Z,7.97
2018-06-12T23:26:56.452Z,8.00
2018-06-12T23:29:24.889Z,7.73
2018-06-12T23:31:53.357Z,6.33
2018-06-12T23:34:21.790Z,6.50
2018-06-12T23:36:50.198Z,6.13
2018-06-12T23:39:18.679Z,6.80
2018-06-12T23:41:47.086Z,6.47
2018-06-12T23:44:15.184Z,6.07
2018-06-12T23:46:43.608Z,5.90
2018-06-12T23:49:12.025Z,5.93
2018-06-12T23:51:40.148Z,6.30
2018-06-12T23:54:08.572Z,5.70
2018-06-12T23:56:36.698Z,5.50
2018-06-12T23:59:05.190Z,5.87
